createdAt,value
2023-05-21T00:02:22.389Z,17.57
2023-05-21T00:04:49.054Z,17.60
2023-05-21T00:07:15.687Z,17.57
2023-05-21T00:09:42.411Z,17.55
2023-05-21T00:12:09.586Z,17.55
2023-05-21T00:14:36.593Z,17.50
2023-05-21T00:17:03.202Z,17.49
2023-05-21T00:19:29.903Z,17.45
2023-05-21T00:21:57.647Z,17.40
2023-05-21T00:24:24.276Z,17.38
2023-05-21T00:26:51.011Z,17.36
2023-05-21T00:29:17.676Z,17.32
2023-05-21T00:31:44.441Z,17.30
2023-05-21T00:34:13.910Z,17.28
2023-05-21T00:36:40.570Z,17.27
2023-05-21T00:39:07.170Z,17.30
2023-05-21T00:41:35.318Z,17.29
2023-05-21T00:44:03.254Z,17.14
2023-05-21T00:46:29.945Z,17.43
2023-05-21T00:48:58.146Z,17.36
2023-05-21T00:51:25.822Z,17.07
2023-05-21T00:53:53.114Z,17.01
2023-05-21T00:56:24.382Z,16.97
2023-05-21T00:58:51.996Z,16.99
2023-05-21T01:01:19.356Z,17.11
2023-05-21T01:03:48.698Z,16.91
2023-05-21T01:06:16.006Z,16.91
2023-05-21T01:08:42.937Z,16.90
2023-05-21T01:11:10.605Z,16.86
2023-05-21T01:13:39.411Z,16.94
2023-05-21T01:16:06.739Z,16.84
2023-05-21T01:18:35.237Z,16.83
2023-05-21T01:21:02.555Z,16.75
2023-05-21T01:23:29.327Z,16.79
2023-05-21T01:25:56.097Z,16.84
2023-05-21T01:28:22.824Z,16.82
2023-05-21T01:30:49.644Z,16.78
2023-05-21T01:33:29.622Z,16.76
2023-05-21T01:36:09.365Z,16.81
2023-05-21T01:38:43.395Z,16.74
2023-05-21T01:41:14.291Z,16.72
2023-05-21T01:43:45.618Z,16.73
2023-05-21T01:46:17.246Z,16.74
2023-05-21T01:48:44.187Z,17.04
2023-05-21T01:51:11.909Z,16.67
2023-05-21T01:53:41.508Z,16.73
2023-05-21T01:56:08.569Z,16.68
2023-05-21T01:58:35.141Z,16.66
2023-05-21T02:01:02.803Z,16.68
2023-05-21T02:03:31.110Z,16.70
2023-05-21T02:05:57.915Z,16.66
2023-05-21T02:08:25.502Z,16.64
2023-05-21T02:10:52.336Z,16.62
2023-05-21T02:13:25.123Z,16.66
2023-05-21T02:15:54.612Z,16.68
2023-05-21T02:18:21.908Z,16.65
2023-05-21T02:20:48.544Z,16.72
2023-05-21T02:23:15.183Z,16.62
2023-05-21T02:25:41.785Z,16.70
2023-05-21T02:28:08.509Z,16.73
2023-05-21T02:30:35.313Z,16.75
2023-05-21T02:33:02.959Z,16.73
2023-05-21T02:35:29.861Z,16.77
2023-05-21T02:37:59.337Z,16.71
2023-05-21T02:40:27.240Z,16.76
2023-05-21T02:42:53.836Z,16.72
2023-05-21T02:45:22.516Z,16.75
2023-05-21T02:47:49.211Z,16.78
2023-05-21T02:50:18.368Z,16.71
2023-05-21T02:52:52.390Z,16.79
2023-05-21T02:55:19.148Z,16.78
2023-05-21T02:57:45.798Z,16.63
2023-05-21T03:00:13.359Z,16.68
2023-05-21T03:02:42.825Z,16.64
2023-05-21T03:05:10.269Z,16.65
2023-05-21T03:07:36.869Z,16.65
2023-05-21T03:10:03.624Z,16.60
2023-05-21T03:12:30.449Z,16.62
2023-05-21T03:14:59.722Z,16.61
2023-05-21T03:17:27.721Z,16.57
2023-05-21T03:19:54.718Z,16.88
2023-05-21T03:22:21.575Z,16.54
2023-05-21T03:24:48.665Z,16.48
2023-05-21T03:27:15.738Z,16.62
2023-05-21T03:29:43.724Z,16.48
2023-05-21T03:32:10.762Z,16.48
2023-05-21T03:34:37.393Z,16.44
2023-05-21T03:37:03.983Z,16.40
2023-05-21T03:39:31.876Z,16.43
2023-05-21T03:41:59.427Z,16.41
2023-05-21T03:44:51.922Z,16.36
2023-05-21T03:47:36.829Z,16.37
2023-05-21T03:50:07.324Z,16.36
2023-05-21T03:52:33.925Z,16.37
2023-05-21T03:55:01.177Z,16.37
2023-05-21T03:57:28.136Z,16.33
2023-05-21T03:59:54.773Z,16.32
2023-05-21T04:02:21.869Z,16.29
2023-05-21T04:04:48.522Z,16.32
2023-05-21T04:07:15.175Z,16.31
2023-05-21T04:09:42.136Z,16.30
2023-05-21T04:12:08.858Z,16.29
2023-05-21T04:14:40.242Z,16.26
2023-05-21T04:17:06.952Z,16.26
2023-05-21T04:19:33.790Z,16.22
2023-05-21T04:22:03.101Z,16.20
2023-05-21T04:24:29.784Z,16.17
2023-05-21T04:27:03.670Z,16.12
2023-05-21T04:29:31.751Z,16.14
2023-05-21T04:31:58.505Z,16.13
2023-05-21T04:34:25.735Z,16.12
2023-05-21T04:36:52.359Z,16.11
2023-05-21T04:39:18.958Z,16.04
2023-05-21T04:41:45.491Z,16.10
2023-05-21T04:44:14.723Z,16.00
2023-05-21T04:46:46.040Z,16.04
2023-05-21T04:49:12.901Z,15.98
2023-05-21T04:51:39.962Z,15.97
2023-05-21T04:54:06.690Z,15.91
2023-05-21T04:56:34.517Z,15.94
2023-05-21T04:59:04.613Z,15.95
2023-05-21T05:01:35.342Z,15.96
2023-05-21T05:04:02.175Z,15.92
2023-05-21T05:06:28.888Z,15.92
2023-05-21T05:08:55.471Z,15.93
2023-05-21T05:11:22.588Z,15.97
2023-05-21T05:13:50.351Z,15.91
2023-05-21T05:16:19.397Z,15.94
2023-05-21T05:18:46.187Z,15.88
2023-05-21T05:21:12.886Z,15.92
2023-05-21T05:23:39.450Z,15.92
2023-05-21T05:26:07.843Z,15.93
2023-05-21T05:28:34.636Z,17.41
2023-05-21T05:31:01.884Z,16.18
2023-05-21T05:33:28.697Z,16.03
2023-05-21T05:35:55.442Z,16.00
2023-05-21T05:38:22.166Z,16.00
2023-05-21T05:40:48.737Z,16.12
2023-05-21T05:43:15.721Z,16.01
2023-05-21T05:45:42.612Z,16.58
2023-05-21T05:48:13.281Z,16.37
2023-05-21T05:50:39.871Z,16.62
2023-05-21T05:53:07.358Z,16.59
2023-05-21T05:55:34.401Z,16.57
2023-05-21T05:58:01.640Z,16.57
2023-05-21T06:00:28.365Z,16.56
2023-05-21T06:02:55.649Z,16.50
2023-05-21T06:05:22.472Z,16.27
2023-05-21T06:07:49.077Z,16.17
2023-05-21T06:10:15.637Z,16.37
2023-05-21T06:12:42.305Z,16.73
2023-05-21T06:15:09.288Z,16.58
2023-05-21T06:17:36.438Z,16.59
2023-05-21T06:20:04.096Z,16.51
2023-05-21T06:22:30.957Z,16.52
2023-05-21T06:24:58.162Z,16.68
2023-05-21T06:27:25.113Z,16.54
2023-05-21T06:29:52.112Z,16.39
2023-05-21T06:32:18.784Z,16.37
2023-05-21T06:34:46.137Z,16.32
2023-05-21T06:37:12.766Z,16.44
2023-05-21T06:39:39.815Z,16.51
2023-05-21T06:42:06.428Z,16.57
2023-05-21T06:44:46.027Z,16.61
2023-05-21T06:47:41.978Z,16.67
2023-05-21T06:50:08.899Z,16.67
2023-05-21T06:52:35.521Z,16.71
2023-05-21T06:55:03.455Z,16.76
2023-05-21T06:57:47.749Z,16.74
2023-05-21T07:00:14.910Z,16.63
2023-05-21T07:02:42.845Z,16.73
2023-05-21T07:05:09.713Z,16.77
2023-05-21T07:07:36.874Z,16.89
2023-05-21T07:10:03.640Z,16.87
2023-05-21T07:12:30.198Z,16.75
2023-05-21T07:14:59.184Z,16.84
2023-05-21T07:17:26.379Z,16.72
2023-05-21T07:19:53.081Z,16.72
2023-05-21T07:22:19.901Z,16.76
2023-05-21T07:24:46.468Z,16.98
2023-05-21T07:27:24.888Z,17.02
2023-05-21T07:29:52.744Z,17.07
2023-05-21T07:32:20.786Z,17.09
2023-05-21T07:34:47.993Z,17.13
2023-05-21T07:37:14.658Z,17.19
2023-05-21T07:39:41.360Z,17.25
2023-05-21T07:42:08.877Z,17.55
2023-05-21T07:44:35.517Z,17.32
2023-05-21T07:47:02.453Z,17.48
2023-05-21T07:49:29.037Z,17.30
2023-05-21T07:51:55.703Z,17.66
2023-05-21T07:54:22.676Z,17.69
2023-05-21T07:56:49.597Z,17.65
2023-05-21T07:59:45.610Z,17.69
2023-05-21T08:02:12.275Z,17.72
2023-05-21T08:04:41.140Z,17.72
2023-05-21T08:07:10.670Z,17.74
2023-05-21T08:09:37.415Z,17.81
2023-05-21T08:12:04.573Z,17.85
2023-05-21T08:14:31.303Z,17.88
2023-05-21T08:16:58.404Z,17.94
2023-05-21T08:19:25.066Z,17.96
2023-05-21T08:21:52.960Z,17.98
2023-05-21T08:24:21.200Z,17.99
2023-05-21T08:26:50.435Z,17.83
2023-05-21T08:29:17.902Z,17.86
2023-05-21T08:31:44.703Z,18.30
2023-05-21T08:34:11.348Z,18.38
2023-05-21T08:36:46.154Z,18.43
2023-05-21T08:39:32.694Z,18.48
2023-05-21T08:42:06.894Z,18.08
2023-05-21T08:44:34.903Z,18.25
2023-05-21T08:47:05.700Z,18.12
2023-05-21T08:49:34.980Z,18.26
2023-05-21T08:52:02.224Z,18.33
2023-05-21T08:54:28.958Z,18.28
2023-05-21T08:56:57.810Z,18.20
2023-05-21T08:59:24.508Z,18.23
2023-05-21T09:01:52.401Z,18.41
2023-05-21T09:04:26.275Z,18.38
2023-05-21T09:06:55.049Z,18.39
2023-05-21T09:09:56.061Z,18.46
2023-05-21T09:12:25.803Z,18.49
2023-05-21T09:14:53.222Z,18.56
2023-05-21T09:17:25.576Z,18.64
2023-05-21T09:20:16.412Z,18.72
2023-05-21T09:22:56.506Z,18.76
2023-05-21T09:25:25.160Z,18.78
2023-05-21T09:27:51.801Z,18.81
2023-05-21T09:30:22.428Z,18.85
2023-05-21T09:32:58.027Z,18.92
2023-05-21T09:35:24.867Z,19.00
2023-05-21T09:37:53.500Z,19.00
2023-05-21T09:40:21.776Z,19.04
2023-05-21T09:42:54.088Z,19.08
2023-05-21T09:45:28.096Z,19.18
2023-05-21T09:47:58.470Z,19.19
2023-05-21T09:50:28.282Z,19.24
2023-05-21T09:52:56.074Z,19.26
2023-05-21T09:55:23.337Z,19.31
2023-05-21T09:57:51.030Z,19.35
2023-05-21T10:00:28.845Z,19.48
2023-05-21T10:02:57.486Z,19.53
2023-05-21T10:05:30.640Z,19.56
2023-05-21T10:08:03.144Z,19.67
2023-05-21T10:10:31.594Z,19.69
2023-05-21T10:13:06.710Z,19.80
2023-05-21T10:15:38.762Z,19.80
2023-05-21T10:18:06.795Z,19.85
2023-05-21T10:20:34.624Z,19.88
2023-05-21T10:23:02.220Z,19.96
2023-05-21T10:25:29.045Z,19.97
2023-05-21T10:27:56.901Z,19.99
2023-05-21T10:30:24.210Z,20.04
2023-05-21T10:32:51.248Z,20.07
2023-05-21T10:35:18.179Z,20.06
2023-05-21T10:37:45.916Z,20.17
2023-05-21T10:40:13.455Z,20.22
2023-05-21T10:43:37.176Z,20.44
2023-05-21T10:46:21.571Z,20.50
2023-05-21T10:49:00.956Z,20.51
2023-05-21T10:51:54.697Z,20.67
2023-05-21T10:54:49.900Z,20.73
2023-05-21T10:57:34.713Z,20.82
2023-05-21T11:00:01.813Z,20.83
2023-05-21T11:02:29.183Z,20.83
2023-05-21T11:05:00.306Z,20.96
2023-05-21T11:07:58.627Z,21.06
2023-05-21T11:10:38.833Z,21.16
2023-05-21T11:13:16.485Z,21.13
2023-05-21T11:15:58.358Z,21.22
2023-05-21T11:18:30.588Z,21.19
2023-05-21T11:21:10.462Z,21.22
2023-05-21T11:23:51.801Z,21.45
2023-05-21T11:26:43.958Z,21.44
2023-05-21T11:29:11.722Z,21.50
2023-05-21T11:31:38.783Z,21.56
2023-05-21T11:34:39.632Z,21.63
2023-05-21T11:37:18.405Z,21.74
2023-05-21T11:39:45.400Z,21.79
2023-05-21T11:42:12.172Z,21.82
2023-05-21T11:44:48.357Z,21.84
2023-05-21T11:47:19.137Z,21.92
2023-05-21T11:49:46.622Z,21.97
2023-05-21T11:52:14.326Z,22.02
2023-05-21T11:54:46.117Z,22.15
2023-05-21T11:57:17.168Z,22.22
2023-05-21T11:59:44.072Z,22.23
2023-05-21T12:02:15.356Z,22.36
2023-05-21T12:04:42.549Z,22.30
2023-05-21T12:07:10.820Z,22.51
2023-05-21T12:09:53.266Z,22.62
2023-05-21T12:12:22.356Z,22.66
2023-05-21T12:14:51.316Z,22.71
2023-05-21T12:17:19.775Z,22.68
2023-05-21T12:19:47.075Z,22.75
2023-05-21T12:22:16.402Z,22.78
2023-05-21T12:24:44.128Z,22.81
2023-05-21T12:27:13.454Z,22.93
2023-05-21T12:29:42.509Z,22.94
2023-05-21T12:32:12.402Z,22.98
2023-05-21T12:34:39.712Z,23.13
2023-05-21T12:37:07.911Z,23.10
2023-05-21T12:39:39.221Z,23.27
2023-05-21T12:42:06.241Z,23.57
2023-05-21T12:44:33.160Z,23.41
2023-05-21T12:47:01.358Z,23.50
2023-05-21T12:49:36.421Z,23.45
2023-05-21T12:52:04.414Z,23.38
2023-05-21T12:54:35.797Z,23.40
2023-05-21T12:57:08.998Z,23.62
2023-05-21T12:59:47.570Z,23.54
2023-05-21T13:02:26.516Z,23.62
2023-05-21T13:04:59.893Z,23.64
2023-05-21T13:07:27.788Z,23.76
2023-05-21T13:09:55.350Z,23.86
2023-05-21T13:12:23.291Z,24.02
2023-05-21T13:14:53.987Z,24.09
2023-05-21T13:17:21.785Z,24.11
2023-05-21T13:20:21.203Z,24.22
2023-05-21T13:22:50.315Z,24.09
2023-05-21T13:25:19.960Z,24.20
2023-05-21T13:27:48.064Z,24.27
2023-05-21T13:30:14.716Z,24.29
2023-05-21T13:32:42.734Z,24.32
2023-05-21T13:35:10.660Z,24.40
2023-05-21T13:37:38.168Z,24.47
2023-05-21T13:40:06.357Z,24.48
2023-05-21T13:42:34.208Z,24.49
2023-05-21T13:45:01.073Z,24.62
2023-05-21T13:47:27.687Z,24.81
2023-05-21T13:49:54.291Z,24.76
2023-05-21T13:52:21.552Z,24.66
2023-05-21T13:54:48.205Z,24.55
2023-05-21T13:57:15.165Z,24.44
2023-05-21T13:59:41.837Z,24.41
2023-05-21T14:02:09.448Z,24.47
2023-05-21T14:04:38.387Z,24.49
2023-05-21T14:07:06.488Z,24.55
2023-05-21T14:09:33.023Z,24.70
2023-05-21T14:11:59.609Z,24.93
2023-05-21T14:14:26.279Z,25.11
2023-05-21T14:16:53.013Z,25.14
2023-05-21T14:19:19.910Z,25.19
2023-05-21T14:21:46.527Z,25.24
2023-05-21T14:24:13.074Z,25.27
2023-05-21T14:26:43.011Z,25.26
2023-05-21T14:29:09.858Z,25.24
2023-05-21T14:31:36.855Z,25.50
2023-05-21T14:34:03.707Z,25.38
2023-05-21T14:36:31.033Z,25.62
2023-05-21T14:38:57.590Z,25.52
2023-05-21T14:41:26.654Z,25.64
2023-05-21T14:43:53.560Z,25.71
2023-05-21T14:46:20.321Z,25.78
2023-05-21T14:48:46.897Z,25.78
2023-05-21T14:51:14.078Z,25.67
2023-05-21T14:53:41.003Z,25.57
2023-05-21T14:56:07.914Z,25.56
2023-05-21T14:58:34.556Z,25.51
2023-05-21T15:01:02.469Z,25.52
2023-05-21T15:03:29.200Z,25.63
2023-05-21T15:05:55.913Z,25.68
2023-05-21T15:08:22.730Z,25.50
2023-05-21T15:10:49.391Z,25.62
2023-05-21T15:13:15.938Z,25.75
2023-05-21T15:15:42.528Z,25.83
2023-05-21T15:18:09.204Z,25.85
2023-05-21T15:20:35.819Z,25.94
2023-05-21T15:25:32.169Z,26.12
2023-05-21T15:27:58.729Z,26.20
2023-05-21T15:30:27.249Z,26.34
2023-05-21T15:32:53.995Z,26.38
2023-05-21T15:35:20.744Z,26.35
2023-05-21T15:37:47.472Z,26.25
2023-05-21T15:40:14.025Z,26.11
2023-05-21T15:42:40.749Z,26.17
2023-05-21T15:45:07.820Z,26.13
2023-05-21T15:47:34.530Z,26.29
2023-05-21T15:50:01.199Z,26.41
2023-05-21T15:52:27.880Z,26.52
2023-05-21T15:54:54.883Z,26.65
2023-05-21T15:57:21.457Z,26.87
2023-05-21T15:59:48.172Z,27.02
2023-05-21T16:02:14.752Z,27.09
2023-05-21T16:04:41.421Z,26.93
2023-05-21T16:07:07.967Z,26.86
2023-05-21T16:09:35.419Z,26.76
2023-05-21T16:12:01.949Z,26.61
2023-05-21T16:14:29.336Z,26.40
2023-05-21T16:16:56.145Z,26.23
2023-05-21T16:19:22.880Z,26.42
2023-05-21T16:21:50.098Z,26.47
2023-05-21T16:24:16.643Z,26.57
2023-05-21T16:26:43.449Z,26.66
2023-05-21T16:29:10.171Z,26.78
2023-05-21T16:31:37.788Z,26.79
2023-05-21T16:34:04.620Z,26.68
2023-05-21T16:36:31.393Z,26.67
2023-05-21T16:38:57.988Z,26.59
2023-05-21T16:41:24.601Z,26.49
2023-05-21T16:43:54.228Z,26.38
2023-05-21T16:46:21.089Z,26.32
2023-05-21T16:48:47.708Z,26.22
2023-05-21T16:51:14.236Z,26.35
2023-05-21T16:53:40.844Z,26.39
2023-05-21T16:56:07.481Z,26.46
2023-05-21T16:58:35.279Z,26.52
2023-05-21T17:01:01.854Z,26.46
2023-05-21T17:03:31.859Z,26.34
2023-05-21T17:05:58.671Z,26.34
2023-05-21T17:08:25.489Z,26.29
2023-05-21T17:10:52.369Z,26.29
2023-05-21T17:13:22.504Z,26.28
2023-05-21T17:15:51.109Z,26.34
2023-05-21T17:18:17.854Z,26.30
2023-05-21T17:20:44.677Z,26.38
2023-05-21T17:23:11.937Z,26.44
2023-05-21T17:25:39.052Z,26.42
2023-05-21T17:28:06.227Z,26.41
2023-05-21T17:30:33.350Z,26.37
2023-05-21T17:33:02.102Z,26.34
2023-05-21T17:35:28.854Z,26.35
2023-05-21T17:37:55.427Z,26.35
2023-05-21T17:40:24.199Z,26.37
2023-05-21T17:42:51.957Z,26.35
2023-05-21T17:45:18.623Z,26.26
2023-05-21T17:47:45.510Z,26.38
2023-05-21T17:50:12.326Z,26.49
2023-05-21T17:52:38.918Z,26.45
2023-05-21T17:55:06.260Z,26.40
2023-05-21T17:57:32.931Z,26.39
2023-05-21T17:59:59.456Z,26.36
2023-05-21T18:02:27.345Z,26.31
2023-05-21T18:04:54.122Z,26.24
2023-05-21T18:07:22.202Z,26.09
2023-05-21T18:09:49.428Z,25.98
2023-05-21T18:12:16.486Z,25.80
2023-05-21T18:14:43.125Z,25.74
2023-05-21T18:17:09.816Z,25.62
2023-05-21T18:19:36.490Z,25.49
2023-05-21T18:22:04.344Z,25.46
2023-05-21T18:24:31.190Z,25.34
2023-05-21T18:26:57.830Z,25.25
2023-05-21T18:29:24.394Z,25.19
2023-05-21T18:31:51.126Z,25.13
2023-05-21T18:34:17.776Z,25.09
2023-05-21T18:36:44.630Z,25.08
2023-05-21T18:39:11.514Z,25.03
2023-05-21T18:41:38.940Z,25.02
2023-05-21T18:44:06.225Z,25.01
2023-05-21T18:46:33.193Z,24.89
2023-05-21T18:49:00.523Z,24.85
2023-05-21T18:51:27.223Z,24.84
2023-05-21T18:53:53.847Z,24.81
2023-05-21T18:56:21.842Z,24.87
2023-05-21T18:58:48.543Z,24.90
2023-05-21T19:01:15.742Z,24.80
2023-05-21T19:03:42.388Z,24.72
2023-05-21T19:06:09.096Z,24.65
2023-05-21T19:08:35.749Z,24.53
2023-05-21T19:11:02.407Z,24.46
2023-05-21T19:13:29.441Z,24.44
2023-05-21T19:15:57.376Z,24.42
2023-05-21T19:18:30.111Z,24.35
2023-05-21T19:20:56.858Z,24.31
2023-05-21T19:23:24.592Z,24.19
2023-05-21T19:25:51.404Z,24.11
2023-05-21T19:28:18.698Z,24.05
2023-05-21T19:30:45.355Z,23.90
2023-05-21T19:33:12.103Z,23.88
2023-05-21T19:35:38.857Z,23.83
2023-05-21T19:38:05.701Z,23.78
2023-05-21T19:40:32.265Z,23.72
2023-05-21T19:42:58.865Z,23.62
2023-05-21T19:45:25.715Z,23.70
2023-05-21T19:47:52.324Z,23.61
2023-05-21T19:50:19.118Z,23.57
2023-05-21T19:52:45.725Z,23.58
2023-05-21T19:55:13.914Z,23.57
2023-05-21T19:57:40.537Z,23.50
2023-05-21T20:00:10.208Z,23.50
2023-05-21T20:02:40.880Z,23.47
2023-05-21T20:05:08.410Z,23.40
2023-05-21T20:07:35.339Z,23.38
2023-05-21T20:10:02.017Z,23.39
2023-05-21T20:12:28.565Z,23.38
2023-05-21T20:14:56.710Z,23.29
2023-05-21T20:17:24.443Z,23.27
2023-05-21T20:19:51.067Z,23.27
2023-05-21T20:22:17.942Z,23.21
2023-05-21T20:24:44.493Z,23.17
2023-05-21T20:27:11.106Z,23.12
2023-05-21T20:29:37.712Z,23.05
2023-05-21T20:32:04.567Z,22.92
2023-05-21T20:34:31.835Z,22.89
2023-05-21T20:36:58.500Z,22.86
2023-05-21T20:39:27.565Z,22.79
2023-05-21T20:41:54.969Z,22.71
2023-05-21T20:44:22.242Z,22.70
2023-05-21T20:46:49.143Z,22.67
2023-05-21T20:49:17.484Z,22.67
2023-05-21T20:51:44.228Z,22.57
2023-05-21T20:54:11.423Z,22.51
2023-05-21T20:56:42.503Z,22.48
2023-05-21T20:59:10.631Z,22.45
2023-05-21T21:01:38.123Z,22.36
2023-05-21T21:04:05.160Z,22.25
2023-05-21T21:06:31.974Z,22.22
2023-05-21T21:08:58.674Z,22.13
2023-05-21T21:11:26.570Z,22.08
2023-05-21T21:13:53.269Z,22.03
2023-05-21T21:16:19.949Z,22.02
2023-05-21T21:18:47.150Z,22.04
2023-05-21T21:21:13.902Z,22.02
2023-05-21T21:23:40.512Z,21.92
2023-05-21T21:26:07.179Z,21.88
2023-05-21T21:28:33.983Z,21.82
2023-05-21T21:31:00.859Z,21.76
2023-05-21T21:33:28.217Z,21.73
2023-05-21T21:35:54.869Z,21.69
2023-05-21T21:38:21.536Z,21.75
2023-05-21T21:40:48.182Z,21.64
2023-05-21T21:43:14.873Z,21.64
2023-05-21T21:45:41.478Z,21.61
2023-05-21T21:48:08.157Z,21.53
2023-05-21T21:50:34.852Z,21.51
2023-05-21T21:53:03.434Z,21.46
2023-05-21T21:55:30.083Z,21.46
2023-05-21T21:57:56.620Z,21.38
2023-05-21T22:00:26.530Z,21.28
2023-05-21T22:02:53.940Z,21.36
2023-05-21T22:05:20.966Z,21.32
2023-05-21T22:07:48.741Z,21.33
2023-05-21T22:10:16.594Z,21.28
2023-05-21T22:12:44.782Z,21.25
2023-05-21T22:15:18.909Z,21.22
2023-05-21T22:17:47.526Z,21.18
2023-05-21T22:20:14.734Z,21.13
2023-05-21T22:22:41.315Z,21.04
2023-05-21T22:25:08.186Z,21.05
2023-05-21T22:27:34.768Z,21.10
2023-05-21T22:30:01.398Z,21.07
2023-05-21T22:32:27.928Z,21.09
2023-05-21T22:34:54.518Z,21.10
2023-05-21T22:37:21.252Z,21.08
2023-05-21T22:39:47.800Z,21.05
2023-05-21T22:42:14.452Z,21.07
2023-05-21T22:44:41.007Z,20.96
2023-05-21T22:47:09.258Z,20.99
2023-05-21T22:49:38.032Z,21.01
2023-05-21T22:52:06.241Z,20.92
2023-05-21T22:54:33.020Z,20.94
2023-05-21T22:57:01.144Z,20.91
2023-05-21T22:59:32.443Z,20.91
2023-05-21T23:01:59.268Z,20.85
2023-05-21T23:04:42.806Z,20.83
2023-05-21T23:07:10.238Z,20.74
2023-05-21T23:09:36.817Z,20.67
2023-05-21T23:12:03.785Z,20.63
2023-05-21T23:14:30.471Z,20.64
2023-05-21T23:17:01.795Z,20.59
2023-05-21T23:19:29.687Z,20.49
2023-05-21T23:21:56.500Z,20.47
2023-05-21T23:24:23.141Z,20.47
2023-05-21T23:26:49.757Z,20.29
2023-05-21T23:29:16.407Z,20.25
2023-05-21T23:31:43.520Z,20.25
2023-05-21T23:34:10.662Z,20.14
2023-05-21T23:36:37.352Z,20.12
2023-05-21T23:39:04.004Z,20.10
2023-05-21T23:41:30.681Z,20.13
2023-05-21T23:43:57.238Z,19.98
2023-05-21T23:46:23.801Z,19.89
2023-05-21T23:48:50.404Z,19.84
2023-05-21T23:51:19.155Z,19.87
2023-05-21T23:53:45.755Z,19.85
2023-05-21T23:56:12.426Z,19.72
2023-05-21T23:58:39.010Z,19.71
